sensor_id;sensor_type;location;lat;lon;timestamp;pressure;altitude;pressure_sealevel;temperature;humidity
47983;BME280;33751;50.816;-1.214;2022-08-19T00:01:41;101372.25;;;20.88;100.00
47983;BME280;33751;50.816;-1.214;2022-08-19T00:04:12;101369.09;;;21.08;100.00
47983;BME280;33751;50.816;-1.214;2022-08-19T00:06:41;101362.92;;;20.84;100.00
47983;BME280;33751;50.816;-1.214;2022-08-19T00:09:11;101363.40;;;20.80;100.00
47983;BME280;33751;50.816;-1.214;2022-08-19T00:11:39;101365.89;;;20.94;100.00
47983;BME280;33751;50.816;-1.214;2022-08-19T00:14:07;101364.38;;;20.91;100.00
47983;BME280;33751;50.816;-1.214;2022-08-19T00:16:35;101358.87;;;20.73;100.00
47983;BME280;33751;50.816;-1.214;2022-08-19T00:19:02;101363.93;;;20.97;100.00
47983;BME280;33751;50.816;-1.214;2022-08-19T00:21:29;101361.92;;;21.39;100.00
47983;BME280;33751;50.816;-1.214;2022-08-19T00:23:58;101363.99;;;21.07;100.00
47983;BME280;33751;50.816;-1.214;2022-08-19T00:26:26;101361.53;;;21.33;100.00
47983;BME280;33751;50.816;-1.214;2022-08-19T00:28:52;101358.19;;;21.12;100.00
47983;BME280;33751;50.816;-1.214;2022-08-19T00:31:20;101361.89;;;21.46;100.00
47983;BME280;33751;50.816;-1.214;2022-08-19T00:33:47;101359.72;;;20.69;100.00
47983;BME280;33751;50.816;-1.214;2022-08-19T00:36:14;101350.70;;;21.10;100.00
47983;BME280;33751;50.816;-1.214;2022-08-19T00:38:41;101354.46;;;21.42;100.00
47983;BME280;33751;50.816;-1.214;2022-08-19T00:41:10;101356.28;;;21.18;100.00
47983;BME280;33751;50.816;-1.214;2022-08-19T00:43:39;101352.26;;;21.19;100.00
47983;BME280;33751;50.816;-1.214;2022-08-19T00:46:05;101349.42;;;21.35;100.00
47983;BME280;33751;50.816;-1.214;2022-08-19T00:48:34;101338.84;;;21.41;100.00
47983;BME280;33751;50.816;-1.214;2022-08-19T00:51:01;101336.97;;;21.15;100.00
47983;BME280;33751;50.816;-1.214;2022-08-19T00:53:31;101333.27;;;21.29;100.00
47983;BME280;33751;50.816;-1.214;2022-08-19T00:55:59;101333.08;;;21.30;100.00
47983;BME280;33751;50.816;-1.214;2022-08-19T00:58:30;101335.79;;;21.32;100.00
47983;BME280;33751;50.816;-1.214;2022-08-19T01:00:58;101331.25;;;21.28;100.00
47983;BME280;33751;50.816;-1.214;2022-08-19T01:03:25;101325.83;;;21.20;100.00
47983;BME280;33751;50.816;-1.214;2022-08-19T01:05:54;101324.57;;;21.08;100.00
47983;BME280;33751;50.816;-1.214;2022-08-19T01:08:22;101325.72;;;21.08;100.00
47983;BME280;33751;50.816;-1.214;2022-08-19T01:10:53;101328.32;;;21.03;100.00
47983;BME280;33751;50.816;-1.214;2022-08-19T01:13:24;101326.50;;;21.48;100.00
47983;BME280;33751;50.816;-1.214;2022-08-19T01:15:55;101326.25;;;21.51;100.00
47983;BME280;33751;50.816;-1.214;2022-08-19T01:18:24;101324.35;;;21.42;100.00
47983;BME280;33751;50.816;-1.214;2022-08-19T01:20:55;101321.58;;;21.08;100.00
47983;BME280;33751;50.816;-1.214;2022-08-19T01:23:22;101324.67;;;21.04;100.00
47983;BME280;33751;50.816;-1.214;2022-08-19T01:25:52;101325.05;;;21.14;100.00
47983;BME280;33751;50.816;-1.214;2022-08-19T01:28:22;101324.75;;;21.11;100.00
47983;BME280;33751;50.816;-1.214;2022-08-19T01:30:50;101327.54;;;21.53;100.00
47983;BME280;33751;50.816;-1.214;2022-08-19T01:33:17;101329.41;;;21.35;100.00
47983;BME280;33751;50.816;-1.214;2022-08-19T01:35:45;101329.43;;;21.26;100.00
47983;BME280;33751;50.816;-1.214;2022-08-19T01:38:21;101324.53;;;21.39;100.00
47983;BME280;33751;50.816;-1.214;2022-08-19T01:40:48;101328.17;;;20.96;100.00
47983;BME280;33751;50.816;-1.214;2022-08-19T01:43:16;101326.63;;;21.04;100.00
47983;BME280;33751;50.816;-1.214;2022-08-19T01:45:43;101320.28;;;21.13;100.00
47983;BME280;33751;50.816;-1.214;2022-08-19T01:48:09;101322.32;;;21.13;100.00
47983;BME280;33751;50.816;-1.214;2022-08-19T01:50:36;101323.30;;;21.12;100.00
47983;BME280;33751;50.816;-1.214;2022-08-19T01:53:06;101325.29;;;20.92;100.00
47983;BME280;33751;50.816;-1.214;2022-08-19T01:55:35;101320.05;;;21.27;100.00
47983;BME280;33751;50.816;-1.214;2022-08-19T01:58:05;101320.57;;;21.04;100.00
47983;BME280;33751;50.816;-1.214;2022-08-19T02:00:34;101326.24;;;20.83;100.00
47983;BME280;33751;50.816;-1.214;2022-08-19T02:03:01;101324.43;;;21.14;100.00
47983;BME280;33751;50.816;-1.214;2022-08-19T02:05:28;101324.66;;;20.96;100.00
47983;BME280;33751;50.816;-1.214;2022-08-19T02:07:56;101321.00;;;21.18;100.00
47983;BME280;33751;50.816;-1.214;2022-08-19T02:10:23;101320.85;;;20.81;100.00
47983;BME280;33751;50.816;-1.214;2022-08-19T02:12:51;101323.92;;;21.07;100.00
47983;BME280;33751;50.816;-1.214;2022-08-19T02:15:19;101329.73;;;21.02;100.00
47983;BME280;33751;50.816;-1.214;2022-08-19T02:17:47;101333.73;;;20.59;100.00
47983;BME280;33751;50.816;-1.214;2022-08-19T02:20:15;101334.06;;;20.83;100.00
47983;BME280;33751;50.816;-1.214;2022-08-19T02:22:43;101335.70;;;20.63;100.00
47983;BME280;33751;50.816;-1.214;2022-08-19T02:25:10;101335.55;;;20.87;100.00
47983;BME280;33751;50.816;-1.214;2022-08-19T02:27:39;101338.65;;;20.58;100.00
47983;BME280;33751;50.816;-1.214;2022-08-19T02:30:10;101339.53;;;20.91;100.00
47983;BME280;33751;50.816;-1.214;2022-08-19T02:32:38;101340.35;;;20.48;100.00
47983;BME280;33751;50.816;-1.214;2022-08-19T02:35:06;101342.99;;;20.68;100.00
47983;BME280;33751;50.816;-1.214;2022-08-19T02:37:33;101342.39;;;20.67;100.00
47983;BME280;33751;50.816;-1.214;2022-08-19T02:40:00;101338.27;;;20.49;100.00
47983;BME280;33751;50.816;-1.214;2022-08-19T02:42:27;101335.63;;;20.77;100.00
47983;BME280;33751;50.816;-1.214;2022-08-19T02:44:55;101334.77;;;20.53;100.00
47983;BME280;33751;50.816;-1.214;2022-08-19T02:47:22;101336.63;;;20.81;100.00
47983;BME280;33751;50.816;-1.214;2022-08-19T02:49:49;101334.84;;;20.26;100.00
47983;BME280;33751;50.816;-1.214;2022-08-19T02:52:16;101333.14;;;20.60;100.00
47983;BME280;33751;50.816;-1.214;2022-08-19T02:54:43;101336.80;;;20.92;100.00
47983;BME280;33751;50.816;-1.214;2022-08-19T02:57:10;101335.06;;;20.69;100.00
47983;BME280;33751;50.816;-1.214;2022-08-19T02:59:38;101336.40;;;20.76;100.00
47983;BME280;33751;50.816;-1.214;2022-08-19T03:02:04;101338.58;;;20.56;100.00
47983;BME280;33751;50.816;-1.214;2022-08-19T03:04:31;101344.49;;;20.63;100.00
47983;BME280;33751;50.816;-1.214;2022-08-19T03:06:57;101344.46;;;20.53;100.00
47983;BME280;33751;50.816;-1.214;2022-08-19T03:09:24;101342.35;;;20.87;100.00
47983;BME280;33751;50.816;-1.214;2022-08-19T03:11:52;101346.33;;;20.97;100.00
47983;BME280;33751;50.816;-1.214;2022-08-19T03:14:18;101346.84;;;20.82;100.00
47983;BME280;33751;50.816;-1.214;2022-08-19T03:16:47;101346.59;;;20.84;100.00
47983;BME280;33751;50.816;-1.214;2022-08-19T03:19:17;101348.44;;;20.94;100.00
47983;BME280;33751;50.816;-1.214;2022-08-19T03:21:45;101351.03;;;20.61;100.00
47983;BME280;33751;50.816;-1.214;2022-08-19T03:24:13;101352.17;;;20.49;100.00
47983;BME280;33751;50.816;-1.214;2022-08-19T03:26:43;101351.44;;;20.47;100.00
47983;BME280;33751;50.816;-1.214;2022-08-19T03:29:10;101355.98;;;20.42;100.00
47983;BME280;33751;50.816;-1.214;2022-08-19T03:31:38;101360.07;;;20.41;100.00
47983;BME280;33751;50.816;-1.214;2022-08-19T03:34:06;101359.63;;;20.44;100.00
47983;BME280;33751;50.816;-1.214;2022-08-19T03:36:33;101356.03;;;20.51;100.00
47983;BME280;33751;50.816;-1.214;2022-08-19T03:39:01;101352.51;;;20.48;100.00
47983;BME280;33751;50.816;-1.214;2022-08-19T03:41:30;101355.27;;;20.55;100.00
47983;BME280;33751;50.816;-1.214;2022-08-19T03:43:58;101356.71;;;20.31;100.00
47983;BME280;33751;50.816;-1.214;2022-08-19T03:46:27;101350.93;;;20.62;100.00
47983;BME280;33751;50.816;-1.214;2022-08-19T03:48:57;101357.98;;;20.46;100.00
47983;BME280;33751;50.816;-1.214;2022-08-19T03:51:27;101355.59;;;20.72;100.00
47983;BME280;33751;50.816;-1.214;2022-08-19T03:53:55;101354.43;;;20.28;100.00
47983;BME280;33751;50.816;-1.214;2022-08-19T03:56:22;101350.23;;;20.58;100.00
47983;BME280;33751;50.816;-1.214;2022-08-19T03:58:49;101355.40;;;20.56;100.00
47983;BME280;33751;50.816;-1.214;2022-08-19T04:01:19;101363.78;;;20.22;100.00
47983;BME280;33751;50.816;-1.214;2022-08-19T04:03:47;101364.22;;;20.29;100.00
47983;BME280;33751;50.816;-1.214;2022-08-19T04:06:16;101368.02;;;20.27;100.00
47983;BME280;33751;50.816;-1.214;2022-08-19T04:08:45;101372.05;;;20.76;100.00
47983;BME280;33751;50.816;-1.214;2022-08-19T04:11:14;101370.63;;;20.43;100.00
47983;BME280;33751;50.816;-1.214;2022-08-19T04:13:41;101366.98;;;20.43;100.00
47983;BME280;33751;50.816;-1.214;2022-08-19T04:16:08;101368.04;;;20.08;100.00
47983;BME280;33751;50.816;-1.214;2022-08-19T04:18:36;101363.65;;;20.31;100.00
47983;BME280;33751;50.816;-1.214;2022-08-19T04:21:04;101364.18;;;20.10;100.00
47983;BME280;33751;50.816;-1.214;2022-08-19T04:23:32;101365.47;;;20.41;100.00
47983;BME280;33751;50.816;-1.214;2022-08-19T04:25:59;101366.26;;;20.45;100.00
47983;BME280;33751;50.816;-1.214;2022-08-19T04:28:26;101367.46;;;20.37;100.00
47983;BME280;33751;50.816;-1.214;2022-08-19T04:30:54;101371.73;;;20.62;100.00
47983;BME280;33751;50.816;-1.214;2022-08-19T04:33:23;101372.30;;;20.50;100.00
47983;BME280;33751;50.816;-1.214;2022-08-19T04:35:52;101374.80;;;20.25;100.00
47983;BME280;33751;50.816;-1.214;2022-08-19T04:38:21;101381.36;;;20.34;100.00
47983;BME280;33751;50.816;-1.214;2022-08-19T04:40:49;101377.48;;;20.04;100.00
47983;BME280;33751;50.816;-1.214;2022-08-19T04:43:17;101379.67;;;20.16;100.00
47983;BME280;33751;50.816;-1.214;2022-08-19T04:45:46;101383.11;;;20.33;100.00
47983;BME280;33751;50.816;-1.214;2022-08-19T04:48:13;101382.88;;;20.11;100.00
47983;BME280;33751;50.816;-1.214;2022-08-19T04:50:42;101381.99;;;20.20;100.00
47983;BME280;33751;50.816;-1.214;2022-08-19T04:53:10;101387.35;;;20.32;100.00
47983;BME280;33751;50.816;-1.214;2022-08-19T04:55:40;101391.18;;;20.27;100.00
47983;BME280;33751;50.816;-1.214;2022-08-19T04:58:07;101388.66;;;20.29;100.00
47983;BME280;33751;50.816;-1.214;2022-08-19T05:00:37;101387.61;;;20.21;100.00
47983;BME280;33751;50.816;-1.214;2022-08-19T05:03:05;101387.36;;;20.47;100.00
47983;BME280;33751;50.816;-1.214;2022-08-19T05:05:31;101392.17;;;20.22;100.00
47983;BME280;33751;50.816;-1.214;2022-08-19T05:07:59;101395.03;;;20.26;100.00
47983;BME280;33751;50.816;-1.214;2022-08-19T05:10:25;101392.16;;;20.18;100.00
47983;BME280;33751;50.816;-1.214;2022-08-19T05:12:52;101392.96;;;20.42;100.00
47983;BME280;33751;50.816;-1.214;2022-08-19T05:15:18;101400.04;;;20.28;100.00
47983;BME280;33751;50.816;-1.214;2022-08-19T05:17:46;101404.58;;;20.31;100.00
47983;BME280;33751;50.816;-1.214;2022-08-19T05:20:12;101404.96;;;20.32;100.00
47983;BME280;33751;50.816;-1.214;2022-08-19T05:22:40;101408.84;;;20.12;100.00
47983;BME280;33751;50.816;-1.214;2022-08-19T05:25:09;101404.68;;;20.23;100.00
47983;BME280;33751;50.816;-1.214;2022-08-19T05:27:36;101407.41;;;20.30;100.00
47983;BME280;33751;50.816;-1.214;2022-08-19T05:30:05;101409.19;;;20.31;100.00
47983;BME280;33751;50.816;-1.214;2022-08-19T05:32:32;101407.05;;;20.34;100.00
47983;BME280;33751;50.816;-1.214;2022-08-19T05:34:59;101407.98;;;20.27;100.00
47983;BME280;33751;50.816;-1.214;2022-08-19T05:37:26;101415.60;;;20.21;100.00
47983;BME280;33751;50.816;-1.214;2022-08-19T05:39:54;101415.81;;;20.29;100.00
47983;BME280;33751;50.816;-1.214;2022-08-19T05:42:22;101413.72;;;20.29;100.00
47983;BME280;33751;50.816;-1.214;2022-08-19T05:44:49;101411.94;;;20.23;100.00
47983;BME280;33751;50.816;-1.214;2022-08-19T05:47:18;101411.19;;;20.26;100.00
47983;BME280;33751;50.816;-1.214;2022-08-19T05:49:45;101411.28;;;19.94;100.00
47983;BME280;33751;50.816;-1.214;2022-08-19T05:52:15;101414.25;;;20.28;100.00
47983;BME280;33751;50.816;-1.214;2022-08-19T05:54:42;101418.59;;;19.98;100.00
47983;BME280;33751;50.816;-1.214;2022-08-19T05:57:10;101416.17;;;20.08;100.00
47983;BME280;33751;50.816;-1.214;2022-08-19T05:59:37;101418.38;;;20.35;100.00
47983;BME280;33751;50.816;-1.214;2022-08-19T06:02:04;101418.41;;;20.37;100.00
47983;BME280;33751;50.816;-1.214;2022-08-19T06:04:32;101420.54;;;20.37;100.00
47983;BME280;33751;50.816;-1.214;2022-08-19T06:06:59;101422.69;;;20.33;100.00
47983;BME280;33751;50.816;-1.214;2022-08-19T06:09:25;101420.16;;;20.15;100.00
47983;BME280;33751;50.816;-1.214;2022-08-19T06:11:54;101419.97;;;20.19;100.00
47983;BME280;33751;50.816;-1.214;2022-08-19T06:14:23;101416.84;;;20.17;100.00
47983;BME280;33751;50.816;-1.214;2022-08-19T06:16:51;101415.44;;;20.35;100.00
47983;BME280;33751;50.816;-1.214;2022-08-19T06:19:20;101417.49;;;20.18;100.00
47983;BME280;33751;50.816;-1.214;2022-08-19T06:21:49;101419.35;;;20.26;100.00
47983;BME280;33751;50.816;-1.214;2022-08-19T06:24:19;101418.55;;;20.26;100.00
47983;BME280;33751;50.816;-1.214;2022-08-19T06:26:47;101417.93;;;20.30;100.00
47983;BME280;33751;50.816;-1.214;2022-08-19T06:29:15;101417.06;;;20.41;100.00
47983;BME280;33751;50.816;-1.214;2022-08-19T06:31:46;101420.10;;;20.51;100.00
47983;BME280;33751;50.816;-1.214;2022-08-19T06:34:13;101427.55;;;20.62;100.00
47983;BME280;33751;50.816;-1.214;2022-08-19T06:36:42;101430.60;;;20.42;100.00
47983;BME280;33751;50.816;-1.214;2022-08-19T06:39:12;101429.62;;;20.38;100.00
47983;BME280;33751;50.816;-1.214;2022-08-19T06:41:41;101431.44;;;20.39;100.00
47983;BME280;33751;50.816;-1.214;2022-08-19T06:44:10;101429.99;;;20.41;100.00
47983;BME280;33751;50.816;-1.214;2022-08-19T06:46:39;101433.05;;;20.55;100.00
47983;BME280;33751;50.816;-1.214;2022-08-19T06:49:07;101429.23;;;20.77;100.00
47983;BME280;33751;50.816;-1.214;2022-08-19T06:51:34;101432.38;;;20.55;100.00
47983;BME280;33751;50.816;-1.214;2022-08-19T06:54:01;101430.56;;;20.46;100.00
47983;BME280;33751;50.816;-1.214;2022-08-19T06:56:30;101430.17;;;20.76;100.00
47983;BME280;33751;50.816;-1.214;2022-08-19T06:58:57;101431.57;;;20.73;100.00
47983;BME280;33751;50.816;-1.214;2022-08-19T07:01:25;101433.03;;;20.73;100.00
47983;BME280;33751;50.816;-1.214;2022-08-19T07:03:51;101437.25;;;20.24;100.00
47983;BME280;33751;50.816;-1.214;2022-08-19T07:06:19;101439.95;;;20.73;100.00
47983;BME280;33751;50.816;-1.214;2022-08-19T07:08:47;101437.72;;;20.50;100.00
47983;BME280;33751;50.816;-1.214;2022-08-19T07:11:16;101441.58;;;20.82;100.00
47983;BME280;33751;50.816;-1.214;2022-08-19T07:13:44;101441.90;;;20.28;100.00
47983;BME280;33751;50.816;-1.214;2022-08-19T07:16:14;101443.23;;;20.15;100.00
47983;BME280;33751;50.816;-1.214;2022-08-19T07:18:41;101445.41;;;20.30;100.00
47983;BME280;33751;50.816;-1.214;2022-08-19T07:21:10;101449.20;;;20.34;100.00
47983;BME280;33751;50.816;-1.214;2022-08-19T07:23:38;101450.98;;;20.36;100.00
47983;BME280;33751;50.816;-1.214;2022-08-19T07:26:06;101452.76;;;20.45;100.00
47983;BME280;33751;50.816;-1.214;2022-08-19T07:28:33;101454.03;;;20.16;100.00
47983;BME280;33751;50.816;-1.214;2022-08-19T07:31:00;101452.92;;;20.34;100.00
47983;BME280;33751;50.816;-1.214;2022-08-19T07:33:27;101457.01;;;20.39;100.00
47983;BME280;33751;50.816;-1.214;2022-08-19T07:35:54;101457.81;;;19.95;100.00
47983;BME280;33751;50.816;-1.214;2022-08-19T07:38:21;101454.59;;;20.24;100.00
47983;BME280;33751;50.816;-1.214;2022-08-19T07:40:48;101459.66;;;20.19;100.00
47983;BME280;33751;50.816;-1.214;2022-08-19T07:43:15;101459.89;;;20.11;100.00
47983;BME280;33751;50.816;-1.214;2022-08-19T07:45:42;101464.09;;;20.14;100.00
47983;BME280;33751;50.816;-1.214;2022-08-19T07:48:09;101462.20;;;20.02;100.00
47983;BME280;33751;50.816;-1.214;2022-08-19T07:50:36;101465.65;;;19.18;100.00
47983;BME280;33751;50.816;-1.214;2022-08-19T07:53:02;101463.62;;;19.07;100.00
47983;BME280;33751;50.816;-1.214;2022-08-19T07:55:29;101466.44;;;19.48;100.00
47983;BME280;33751;50.816;-1.214;2022-08-19T07:57:56;101467.33;;;19.23;100.00
47983;BME280;33751;50.816;-1.214;2022-08-19T08:00:23;101469.26;;;18.77;100.00
47983;BME280;33751;50.816;-1.214;2022-08-19T08:02:50;101471.32;;;19.00;100.00
47983;BME280;33751;50.816;-1.214;2022-08-19T08:05:17;101470.21;;;18.87;100.00
47983;BME280;33751;50.816;-1.214;2022-08-19T08:07:44;101477.02;;;19.37;100.00
47983;BME280;33751;50.816;-1.214;2022-08-19T08:10:12;101480.55;;;19.20;100.00
47983;BME280;33751;50.816;-1.214;2022-08-19T08:12:40;101483.19;;;19.27;100.00
47983;BME280;33751;50.816;-1.214;2022-08-19T08:15:10;101486.36;;;19.10;100.00
47983;BME280;33751;50.816;-1.214;2022-08-19T08:17:38;101488.92;;;19.05;100.00
47983;BME280;33751;50.816;-1.214;2022-08-19T08:20:06;101488.94;;;18.61;100.00
47983;BME280;33751;50.816;-1.214;2022-08-19T08:22:34;101484.83;;;18.83;100.00
47983;BME280;33751;50.816;-1.214;2022-08-19T08:25:03;101485.55;;;19.13;100.00
47983;BME280;33751;50.816;-1.214;2022-08-19T08:27:30;101489.25;;;19.09;100.00
47983;BME280;33751;50.816;-1.214;2022-08-19T08:29:57;101489.55;;;18.83;100.00
47983;BME280;33751;50.816;-1.214;2022-08-19T08:32:24;101492.57;;;18.81;100.00
47983;BME280;33751;50.816;-1.214;2022-08-19T08:34:52;101494.64;;;19.01;100.00
47983;BME280;33751;50.816;-1.214;2022-08-19T08:37:19;101495.40;;;19.43;100.00
47983;BME280;33751;50.816;-1.214;2022-08-19T08:39:45;101497.74;;;19.33;100.00
47983;BME280;33751;50.816;-1.214;2022-08-19T08:42:17;101495.52;;;19.01;100.00
47983;BME280;33751;50.816;-1.214;2022-08-19T08:44:52;101494.61;;;19.48;100.00
47983;BME280;33751;50.816;-1.214;2022-08-19T08:47:22;101499.79;;;19.04;100.00
47983;BME280;33751;50.816;-1.214;2022-08-19T08:49:52;101502.73;;;19.29;100.00
47983;BME280;33751;50.816;-1.214;2022-08-19T08:52:24;101504.33;;;18.85;100.00
47983;BME280;33751;50.816;-1.214;2022-08-19T08:54:53;101507.78;;;18.92;100.00
47983;BME280;33751;50.816;-1.214;2022-08-19T08:57:27;101512.06;;;19.12;100.00
47983;BME280;33751;50.816;-1.214;2022-08-19T08:59:57;101509.47;;;18.91;100.00
47983;BME280;33751;50.816;-1.214;2022-08-19T09:02:26;101505.73;;;18.91;100.00
47983;BME280;33751;50.816;-1.214;2022-08-19T09:04:54;101505.21;;;18.83;100.00
47983;BME280;33751;50.816;-1.214;2022-08-19T09:07:39;101507.15;;;19.08;100.00
47983;BME280;33751;50.816;-1.214;2022-08-19T09:10:15;101509.47;;;19.34;100.00
47983;BME280;33751;50.816;-1.214;2022-08-19T09:12:53;101509.78;;;19.10;100.00
47983;BME280;33751;50.816;-1.214;2022-08-19T09:15:27;101508.60;;;19.40;100.00
47983;BME280;33751;50.816;-1.214;2022-08-19T09:17:59;101510.76;;;19.33;100.00
47983;BME280;33751;50.816;-1.214;2022-08-19T09:20:26;101513.24;;;19.34;100.00
47983;BME280;33751;50.816;-1.214;2022-08-19T09:22:54;101513.72;;;19.64;100.00
47983;BME280;33751;50.816;-1.214;2022-08-19T09:25:22;101517.15;;;19.31;100.00
47983;BME280;33751;50.816;-1.214;2022-08-19T09:27:50;101520.45;;;19.60;100.00
47983;BME280;33751;50.816;-1.214;2022-08-19T09:30:20;101523.89;;;20.10;100.00
47983;BME280;33751;50.816;-1.214;2022-08-19T09:32:48;101524.05;;;19.79;100.00
47983;BME280;33751;50.816;-1.214;2022-08-19T09:35:15;101521.97;;;19.90;100.00
47983;BME280;33751;50.816;-1.214;2022-08-19T09:37:42;101524.70;;;19.83;100.00
47983;BME280;33751;50.816;-1.214;2022-08-19T09:40:11;101522.62;;;20.10;100.00
47983;BME280;33751;50.816;-1.214;2022-08-19T09:42:38;101519.36;;;19.95;100.00
47983;BME280;33751;50.816;-1.214;2022-08-19T09:45:06;101518.16;;;20.26;100.00
47983;BME280;33751;50.816;-1.214;2022-08-19T09:47:33;101522.15;;;20.63;100.00
47983;BME280;33751;50.816;-1.214;2022-08-19T09:50:00;101520.76;;;20.75;100.00
47983;BME280;33751;50.816;-1.214;2022-08-19T09:52:27;101522.35;;;20.73;100.00
47983;BME280;33751;50.816;-1.214;2022-08-19T09:54:54;101515.76;;;20.83;100.00
47983;BME280;33751;50.816;-1.214;2022-08-19T09:57:21;101521.37;;;20.73;100.00
47983;BME280;33751;50.816;-1.214;2022-08-19T09:59:48;101521.73;;;20.52;100.00
47983;BME280;33751;50.816;-1.214;2022-08-19T10:02:15;101524.76;;;19.87;100.00
47983;BME280;33751;50.816;-1.214;2022-08-19T10:04:42;101528.22;;;20.33;100.00
47983;BME280;33751;50.816;-1.214;2022-08-19T10:07:09;101535.32;;;20.21;100.00
47983;BME280;33751;50.816;-1.214;2022-08-19T10:09:36;101540.01;;;20.29;100.00
47983;BME280;33751;50.816;-1.214;2022-08-19T10:12:04;101539.72;;;20.38;100.00
47983;BME280;33751;50.816;-1.214;2022-08-19T10:14:32;101541.25;;;19.87;100.00
47983;BME280;33751;50.816;-1.214;2022-08-19T10:16:59;101545.53;;;20.18;100.00
47983;BME280;33751;50.816;-1.214;2022-08-19T10:19:26;101548.16;;;20.50;100.00
47983;BME280;33751;50.816;-1.214;2022-08-19T10:21:54;101548.10;;;20.36;100.00
47983;BME280;33751;50.816;-1.214;2022-08-19T10:24:20;101550.16;;;20.18;100.00
47983;BME280;33751;50.816;-1.214;2022-08-19T10:26:47;101552.28;;;20.41;100.00
47983;BME280;33751;50.816;-1.214;2022-08-19T10:29:14;101545.24;;;20.14;100.00
47983;BME280;33751;50.816;-1.214;2022-08-19T10:31:42;101543.91;;;20.65;100.00
47983;BME280;33751;50.816;-1.214;2022-08-19T10:34:08;101545.42;;;20.55;100.00
47983;BME280;33751;50.816;-1.214;2022-08-19T10:36:36;101547.54;;;20.58;100.00
47983;BME280;33751;50.816;-1.214;2022-08-19T10:39:08;101551.86;;;20.82;100.00
47983;BME280;33751;50.816;-1.214;2022-08-19T10:41:38;101549.09;;;20.66;100.00
47983;BME280;33751;50.816;-1.214;2022-08-19T10:44:07;101551.72;;;21.04;100.00
47983;BME280;33751;50.816;-1.214;2022-08-19T10:46:38;101550.83;;;21.22;100.00
47983;BME280;33751;50.816;-1.214;2022-08-19T10:49:06;101549.31;;;20.91;100.00
47983;BME280;33751;50.816;-1.214;2022-08-19T10:51:33;101551.14;;;21.61;100.00
47983;BME280;33751;50.816;-1.214;2022-08-19T10:54:00;101555.20;;;21.55;100.00
47983;BME280;33751;50.816;-1.214;2022-08-19T10:56:28;101555.30;;;21.61;100.00
47983;BME280;33751;50.816;-1.214;2022-08-19T10:58:56;101558.56;;;21.37;100.00
47983;BME280;33751;50.816;-1.214;2022-08-19T11:01:23;101560.19;;;21.12;100.00
47983;BME280;33751;50.816;-1.214;2022-08-19T11:03:50;101554.20;;;21.63;100.00
47983;BME280;33751;50.816;-1.214;2022-08-19T11:06:17;101557.28;;;21.80;100.00
47983;BME280;33751;50.816;-1.214;2022-08-19T11:08:44;101558.80;;;21.84;100.00
47983;BME280;33751;50.816;-1.214;2022-08-19T11:11:12;101557.76;;;22.19;100.00
47983;BME280;33751;50.816;-1.214;2022-08-19T11:13:42;101558.98;;;21.65;100.00
47983;BME280;33751;50.816;-1.214;2022-08-19T11:16:12;101553.40;;;22.21;100.00
47983;BME280;33751;50.816;-1.214;2022-08-19T11:18:45;101555.61;;;21.75;100.00
47983;BME280;33751;50.816;-1.214;2022-08-19T11:21:15;101551.39;;;22.02;100.00
47983;BME280;33751;50.816;-1.214;2022-08-19T11:23:42;101550.80;;;22.31;100.00
47983;BME280;33751;50.816;-1.214;2022-08-19T11:26:10;101553.88;;;22.64;100.00
47983;BME280;33751;50.816;-1.214;2022-08-19T11:28:37;101552.63;;;23.24;100.00
47983;BME280;33751;50.816;-1.214;2022-08-19T11:31:09;101551.69;;;23.47;100.00
47983;BME280;33751;50.816;-1.214;2022-08-19T11:33:37;101550.69;;;23.89;100.00
47983;BME280;33751;50.816;-1.214;2022-08-19T11:36:04;101551.78;;;23.50;100.00
47983;BME280;33751;50.816;-1.214;2022-08-19T11:38:31;101547.78;;;22.97;100.00
47983;BME280;33751;50.816;-1.214;2022-08-19T11:41:00;101546.28;;;23.53;100.00
47983;BME280;33751;50.816;-1.214;2022-08-19T11:43:28;101546.98;;;22.80;100.00
47983;BME280;33751;50.816;-1.214;2022-08-19T11:45:55;101541.38;;;24.07;100.00
47983;BME280;33751;50.816;-1.214;2022-08-19T11:48:23;101542.88;;;24.36;100.00
47983;BME280;33751;50.816;-1.214;2022-08-19T11:50:51;101542.64;;;24.33;94.37
47983;BME280;33751;50.816;-1.214;2022-08-19T11:53:19;101539.93;;;25.19;100.00
47983;BME280;33751;50.816;-1.214;2022-08-19T11:55:47;101543.44;;;25.15;99.18
47983;BME280;33751;50.816;-1.214;2022-08-19T11:58:16;101540.02;;;25.21;75.10
47983;BME280;33751;50.816;-1.214;2022-08-19T12:00:43;101537.21;;;25.67;84.49
47983;BME280;33751;50.816;-1.214;2022-08-19T12:03:12;101532.38;;;25.53;87.32
47983;BME280;33751;50.816;-1.214;2022-08-19T12:05:40;101530.86;;;25.43;90.48
47983;BME280;33751;50.816;-1.214;2022-08-19T12:08:07;101531.56;;;25.83;82.55
47983;BME280;33751;50.816;-1.214;2022-08-19T12:10:35;101530.34;;;26.20;76.28
47983;BME280;33751;50.816;-1.214;2022-08-19T12:13:03;101530.22;;;26.24;63.93
47983;BME280;33751;50.816;-1.214;2022-08-19T12:15:29;101534.34;;;26.24;60.27
47983;BME280;33751;50.816;-1.214;2022-08-19T12:17:57;101533.29;;;26.05;58.66
47983;BME280;33751;50.816;-1.214;2022-08-19T12:20:24;101534.31;;;26.06;62.35
47983;BME280;33751;50.816;-1.214;2022-08-19T12:22:51;101530.46;;;26.72;57.77
47983;BME280;33751;50.816;-1.214;2022-08-19T12:25:19;101532.20;;;26.86;57.00
47983;BME280;33751;50.816;-1.214;2022-08-19T12:27:46;101533.83;;;26.44;58.83
47983;BME280;33751;50.816;-1.214;2022-08-19T12:30:13;101533.67;;;26.58;55.89
47983;BME280;33751;50.816;-1.214;2022-08-19T12:32:40;101533.66;;;26.62;49.37
47983;BME280;33751;50.816;-1.214;2022-08-19T12:35:08;101536.40;;;26.26;47.77